Time,TemperatureF,DewpointF,PressureIn,WindDirection,WindDirectionDegrees,WindSpeedMPH,WindSpeedGustMPH,Humidity,HourlyPrecipIn,Conditions,Clouds,dailyrainin,SoftwareType,DateUTC
2013-05-05 00:00:00,40.9,39.3,30.30,SW,233,0.0,15.0,94,0.00,,,0.00,Wunderground v.1.15,2013-05-05 04:00:00,
2013-05-05 00:05:00,40.8,39.2,30.30,WSW,240,0.0,15.0,94,0.00,,,0.00,Wunderground v.1.15,2013-05-05 04:05:00,
2013-05-05 00:10:00,40.9,39.3,30.30,WSW,240,0.0,15.0,94,0.00,,,0.00,Wunderground v.1.15,2013-05-05 04:10:00,
2013-05-05 00:20:00,40.8,39.2,30.30,WSW,240,0.0,15.0,94,0.00,,,0.00,Wunderground v.1.15,2013-05-05 04:20:00,
2013-05-05 00:25:00,40.7,39.1,30.31,WSW,240,0.0,15.0,94,0.00,,,0.00,Wunderground v.1.15,2013-05-05 04:25:00,
2013-05-05 00:30:00,40.6,39.0,30.30,WSW,242,0.0,15.0,94,0.00,,,0.00,Wunderground v.1.15,2013-05-05 04:30:00,
2013-05-05 00:35:00,40.4,38.8,30.30,WSW,240,0.0,15.0,94,0.00,,,0.00,Wunderground v.1.15,2013-05-05 04:35:00,
2013-05-05 00:45:00,40.0,38.4,30.30,WSW,240,0.0,15.0,94,0.00,,,0.00,Wunderground v.1.15,2013-05-05 04:45:00,
2013-05-05 00:55:00,39.9,38.6,30.31,WSW,241,0.0,15.0,95,0.00,,,0.00,Wunderground v.1.15,2013-05-05 04:55:00,
2013-05-05 01:05:00,40.5,39.2,30.30,NE,44,1.0,15.0,95,0.00,,,0.00,Wunderground v.1.15,2013-05-05 05:05:00,
2013-05-05 01:10:00,40.6,39.0,30.30,NE,46,1.0,1.0,94,0.00,,,0.00,Wunderground v.1.15,2013-05-05 05:10:00,
2013-05-05 01:20:00,40.5,38.6,30.30,NE,46,0.0,15.0,93,0.00,,,0.00,Wunderground v.1.15,2013-05-05 05:20:00,
2013-05-05 01:30:00,40.3,38.2,30.30,NE,44,0.0,15.0,92,0.00,,,0.00,Wunderground v.1.15,2013-05-05 05:30:00,
2013-05-05 01:35:00,39.8,37.7,30.30,NE,44,0.0,15.0,92,0.00,,,0.00,Wunderground v.1.15,2013-05-05 05:35:00,
2013-05-05 01:45:00,39.1,37.2,30.30,North,353,0.0,15.0,93,0.00,,,0.00,Wunderground v.1.15,2013-05-05 05:45:00,
2013-05-05 01:55:00,39.1,37.5,30.30,North,357,1.0,15.0,94,0.00,,,0.00,Wunderground v.1.15,2013-05-05 05:55:00,
2013-05-05 02:00:00,39.1,37.5,30.29,NNW,347,1.0,1.0,94,0.00,,,0.00,Wunderground v.1.15,2013-05-05 06:00:00,
2013-05-05 02:10:00,38.5,36.7,30.29,NW,316,0.0,15.0,93,0.00,,,0.00,Wunderground v.1.15,2013-05-05 06:10:00,
2013-05-05 02:20:00,37.9,36.1,30.29,NW,314,0.0,15.0,93,0.00,,,0.00,Wunderground v.1.15,2013-05-05 06:20:00,
2013-05-05 02:30:00,37.7,36.1,30.29,NW,315,0.0,15.0,94,0.00,,,0.00,Wunderground v.1.15,2013-05-05 06:30:00,
2013-05-05 02:40:00,37.2,35.6,30.29,NW,315,0.0,15.0,94,0.00,,,0.00,Wunderground v.1.15,2013-05-05 06:40:00,
2013-05-05 02:50:00,36.9,35.6,30.29,NW,314,0.0,15.0,95,0.00,,,0.00,Wunderground v.1.15,2013-05-05 06:50:00,
2013-05-05 03:00:00,36.7,35.4,30.29,NW,314,0.0,15.0,95,0.00,,,0.00,Wunderground v.1.15,2013-05-05 07:00:00,
2013-05-05 03:10:00,36.6,35.3,30.29,NW,312,0.0,15.0,95,0.00,,,0.00,Wunderground v.1.15,2013-05-05 07:10:00,
2013-05-05 03:20:00,36.6,35.3,30.29,WNW,298,0.0,15.0,95,0.00,,,0.00,Wunderground v.1.15,2013-05-05 07:20:00,
2013-05-05 03:30:00,36.6,35.3,30.28,WNW,294,0.0,15.0,95,0.00,,,0.00,Wunderground v.1.15,2013-05-05 07:30:00,
2013-05-05 03:40:00,36.5,35.2,30.28,WNW,288,1.0,15.0,95,0.00,,,0.00,Wunderground v.1.15,2013-05-05 07:40:00,
2013-05-05 03:50:00,36.5,35.2,30.28,WNW,291,0.0,15.0,95,0.00,,,0.00,Wunderground v.1.15,2013-05-05 07:50:00,
2013-05-05 04:00:00,36.5,35.2,30.28,WNW,293,1.0,1.0,95,0.00,,,0.00,Wunderground v.1.15,2013-05-05 08:00:00,
2013-05-05 04:10:00,36.4,34.8,30.28,WNW,292,1.0,1.0,94,0.00,,,0.00,Wunderground v.1.15,2013-05-05 08:10:00,
2013-05-05 04:20:00,36.1,34.5,30.28,WNW,294,1.0,15.0,94,0.00,,,0.00,Wunderground v.1.15,2013-05-05 08:20:00,
2013-05-05 04:30:00,35.9,34.3,30.28,WNW,300,1.0,15.0,94,0.00,,,0.00,Wunderground v.1.15,2013-05-05 08:30:00,
2013-05-05 04:40:00,35.8,34.5,30.28,WNW,293,1.0,1.0,95,0.00,,,0.00,Wunderground v.1.15,2013-05-05 08:40:00,
2013-05-05 04:50:00,35.7,34.4,30.28,WNW,289,1.0,15.0,95,0.00,,,0.00,Wunderground v.1.15,2013-05-05 08:50:00,
2013-05-05 05:00:00,35.7,34.4,30.28,WNW,291,1.0,15.0,95,0.00,,,0.00,Wunderground v.1.15,2013-05-05 09:00:00,
2013-05-05 05:05:00,35.7,34.4,30.28,WNW,300,1.0,15.0,95,0.00,,,0.00,Wunderground v.1.15,2013-05-05 09:05:00,
2013-05-05 05:10:00,35.9,34.6,30.28,WNW,285,1.0,15.0,95,0.00,,,0.00,Wunderground v.1.15,2013-05-05 09:10:00,
2013-05-05 05:20:00,36.6,35.6,30.28,NW,326,1.0,15.0,96,0.00,,,0.00,Wunderground v.1.15,2013-05-05 09:20:00,
2013-05-05 05:30:00,37.3,36.3,30.28,WNW,291,1.0,1.0,96,0.00,,,0.00,Wunderground v.1.15,2013-05-05 09:30:00,
2013-05-05 05:40:00,36.8,35.5,30.29,WNW,294,1.0,15.0,95,0.00,,,0.00,Wunderground v.1.15,2013-05-05 09:40:00,
2013-05-05 05:45:00,36.5,35.2,30.29,WNW,291,1.0,15.0,95,0.00,,,0.00,Wunderground v.1.15,2013-05-05 09:45:00,
2013-05-05 05:55:00,36.3,35.0,30.29,WNW,293,1.0,15.0,95,0.00,,,0.00,Wunderground v.1.15,2013-05-05 09:55:00,
2013-05-05 06:05:00,36.2,34.9,30.29,WNW,290,1.0,15.0,95,0.00,,,0.00,Wunderground v.1.15,2013-05-05 10:05:00,
2013-05-05 06:10:00,36.3,35.0,30.29,WNW,294,1.0,15.0,95,0.00,,,0.00,Wunderground v.1.15,2013-05-05 10:10:00,
2013-05-05 06:20:00,36.7,35.4,30.29,WNW,298,1.0,15.0,95,0.00,,,0.00,Wunderground v.1.15,2013-05-05 10:20:00,
2013-05-05 06:30:00,37.3,36.0,30.30,NW,305,1.0,15.0,95,0.00,,,0.00,Wunderground v.1.15,2013-05-05 10:30:00,
2013-05-05 06:35:00,37.7,36.4,30.30,WNW,293,1.0,15.0,95,0.00,,,0.00,Wunderground v.1.15,2013-05-05 10:35:00,
2013-05-05 06:45:00,38.6,37.0,30.30,WNW,288,1.0,15.0,94,0.00,,,0.00,Wunderground v.1.15,2013-05-05 10:45:00,
2013-05-05 06:55:00,39.4,37.8,30.30,WNW,293,2.0,15.0,94,0.00,,,0.00,Wunderground v.1.15,2013-05-05 10:55:00,
2013-05-05 07:00:00,39.7,37.8,30.30,NW,307,2.0,2.0,93,0.00,,,0.00,Wunderground v.1.15,2013-05-05 11:00:00,
2013-05-05 07:10:00,40.4,38.3,30.30,NW,304,2.0,15.0,92,0.00,,,0.00,Wunderground v.1.15,2013-05-05 11:10:00,
2013-05-05 07:20:00,41.2,39.1,30.30,NW,309,2.0,15.0,92,0.00,,,0.00,Wunderground v.1.15,2013-05-05 11:20:00,
2013-05-05 07:30:00,42.4,39.7,30.30,North,351,2.0,15.0,90,0.00,,,0.00,Wunderground v.1.15,2013-05-05 11:30:00,
2013-05-05 07:40:00,43.5,40.2,30.30,North,357,4.0,4.0,88,0.00,,,0.00,Wunderground v.1.15,2013-05-05 11:40:00,
2013-05-05 07:50:00,44.4,40.2,30.30,North,352,3.0,15.0,85,0.00,,,0.00,Wunderground v.1.15,2013-05-05 11:50:00,
2013-05-05 08:00:00,45.0,40.8,30.30,NE,51,4.0,15.0,85,0.00,,,0.00,Wunderground v.1.15,2013-05-05 12:00:00,
2013-05-05 08:10:00,46.0,40.8,30.30,NNE,27,3.0,15.0,82,0.00,,,0.00,Wunderground v.1.15,2013-05-05 12:10:00,
2013-05-05 08:20:00,46.4,41.2,30.30,NE,40,5.0,5.0,82,0.00,,,0.00,Wunderground v.1.15,2013-05-05 12:20:00,
2013-05-05 08:30:00,47.1,41.6,30.30,North,6,5.0,5.0,81,0.00,,,0.00,Wunderground v.1.15,2013-05-05 12:30:00,
2013-05-05 08:40:00,47.7,41.2,30.30,NNW,342,4.0,4.0,78,0.00,,,0.00,Wunderground v.1.15,2013-05-05 12:40:00,
2013-05-05 08:50:00,47.9,41.0,30.30,NE,36,4.0,15.0,77,0.00,,,0.00,Wunderground v.1.15,2013-05-05 12:50:00,
2013-05-05 09:00:00,48.9,41.3,30.30,NE,39,3.0,3.0,75,0.00,,,0.00,Wunderground v.1.15,2013-05-05 13:00:00,
2013-05-05 09:10:00,48.9,40.6,30.30,ENE,60,4.0,15.0,73,0.00,,,0.00,Wunderground v.1.15,2013-05-05 13:10:00,
2013-05-05 09:20:00,49.7,41.0,30.29,NE,47,4.0,4.0,72,0.00,,,0.00,Wunderground v.1.15,2013-05-05 13:20:00,
2013-05-05 09:25:00,50.6,41.9,30.30,NNW,347,3.0,15.0,72,0.00,,,0.00,Wunderground v.1.15,2013-05-05 13:25:00,
2013-05-05 09:35:00,51.0,40.4,30.30,NE,34,4.0,15.0,67,0.00,,,0.00,Wunderground v.1.15,2013-05-05 13:35:00,
2013-05-05 09:40:00,50.5,40.3,30.30,ENE,68,5.0,15.0,68,0.00,,,0.00,Wunderground v.1.15,2013-05-05 13:40:00,
2013-05-05 09:50:00,51.4,41.6,30.29,NNW,347,4.0,15.0,69,0.00,,,0.00,Wunderground v.1.15,2013-05-05 13:50:00,
2013-05-05 10:00:00,51.9,40.5,30.29,North,8,5.0,15.0,65,0.00,,,0.00,Wunderground v.1.15,2013-05-05 14:00:00,
2013-05-05 10:10:00,52.9,41.8,30.29,North,353,4.0,15.0,66,0.00,,,0.00,Wunderground v.1.15,2013-05-05 14:10:00,
2013-05-05 10:20:00,53.6,40.5,30.28,SE,138,3.0,15.0,61,0.00,,,0.00,Wunderground v.1.15,2013-05-05 14:20:00,
2013-05-05 10:30:00,53.1,40.0,30.29,East,82,4.0,15.0,61,0.00,,,0.00,Wunderground v.1.15,2013-05-05 14:30:00,
2013-05-05 10:35:00,53.5,39.9,30.29,NE,47,4.0,15.0,60,0.00,,,0.00,Wunderground v.1.15,2013-05-05 14:35:00,
2013-05-05 10:45:00,53.8,40.2,30.29,ESE,104,5.0,15.0,60,0.00,,,0.00,Wunderground v.1.15,2013-05-05 14:45:00,
2013-05-05 10:55:00,54.1,39.6,30.28,North,354,3.0,15.0,58,0.00,,,0.00,Wunderground v.1.15,2013-05-05 14:55:00,
2013-05-05 11:05:00,54.7,39.8,30.28,NW,318,3.0,15.0,57,0.00,,,0.00,Wunderground v.1.15,2013-05-05 15:05:00,
2013-05-05 11:10:00,55.2,39.8,30.28,ENE,68,4.0,4.0,56,0.00,,,0.00,Wunderground v.1.15,2013-05-05 15:10:00,
2013-05-05 11:20:00,55.4,40.4,30.28,ESE,109,4.0,4.0,57,0.00,,,0.00,Wunderground v.1.15,2013-05-05 15:20:00,
2013-05-05 11:25:00,56.0,40.5,30.28,NNE,32,3.0,6.0,56,0.00,,,0.00,Wunderground v.1.15,2013-05-05 15:25:00,
2013-05-05 11:35:00,55.7,40.2,30.28,SE,143,4.0,15.0,56,0.00,,,0.00,Wunderground v.1.15,2013-05-05 15:35:00,
2013-05-05 11:45:00,56.1,40.1,30.28,NE,35,4.0,5.0,55,0.00,,,0.00,Wunderground v.1.15,2013-05-05 15:45:00,
2013-05-05 11:50:00,55.8,41.2,30.28,NE,40,5.0,5.0,58,0.00,,,0.00,Wunderground v.1.15,2013-05-05 15:50:00,
2013-05-05 12:00:00,57.3,42.2,30.27,North,349,3.0,15.0,57,0.00,,,0.00,Wunderground v.1.15,2013-05-05 16:00:00,
2013-05-05 12:10:00,58.4,41.3,30.27,NW,321,3.0,3.0,53,0.00,,,0.00,Wunderground v.1.15,2013-05-05 16:10:00,
2013-05-05 12:15:00,58.6,41.0,30.27,NE,44,4.0,7.0,52,0.00,,,0.00,Wunderground v.1.15,2013-05-05 16:15:00,
2013-05-05 12:25:00,58.5,40.9,30.26,NNW,338,4.0,15.0,52,0.00,,,0.00,Wunderground v.1.15,2013-05-05 16:25:00,
2013-05-05 12:30:00,59.5,41.9,30.26,NNW,338,4.0,4.0,52,0.00,,,0.00,Wunderground v.1.15,2013-05-05 16:30:00,
2013-05-05 12:35:00,59.7,41.5,30.26,NE,51,4.0,15.0,51,0.00,,,0.00,Wunderground v.1.15,2013-05-05 16:35:00,
2013-05-05 12:45:00,60.3,41.0,30.26,SW,236,3.0,15.0,49,0.00,,,0.00,Wunderground v.1.15,2013-05-05 16:45:00,
2013-05-05 12:55:00,60.8,40.4,30.25,SE,146,2.0,15.0,47,0.00,,,0.00,Wunderground v.1.15,2013-05-05 16:55:00,
2013-05-05 13:05:00,60.5,40.7,30.25,North,351,3.0,15.0,48,0.00,,,0.00,Wunderground v.1.15,2013-05-05 17:05:00,
2013-05-05 13:10:00,60.3,40.0,30.25,East,94,4.0,15.0,47,0.00,,,0.00,Wunderground v.1.15,2013-05-05 17:10:00,
2013-05-05 13:15:00,60.6,40.8,30.25,West,269,3.0,15.0,48,0.00,,,0.00,Wunderground v.1.15,2013-05-05 17:15:00,
2013-05-05 13:25:00,62.9,41.8,30.25,ENE,74,1.0,15.0,46,0.00,,,0.00,Wunderground v.1.15,2013-05-05 17:25:00,
2013-05-05 13:30:00,62.2,40.0,30.25,NE,47,3.0,15.0,44,0.00,,,0.00,Wunderground v.1.15,2013-05-05 17:30:00,
2013-05-05 13:40:00,61.7,39.0,30.25,NNW,328,4.0,4.0,43,0.00,,,0.00,Wunderground v.1.15,2013-05-05 17:40:00,
2013-05-05 13:50:00,63.4,41.1,30.24,NW,316,3.0,15.0,44,0.00,,,0.00,Wunderground v.1.15,2013-05-05 17:50:00,
2013-05-05 14:00:00,63.0,40.7,30.24,NNW,342,4.0,4.0,44,0.00,,,0.00,Wunderground v.1.15,2013-05-05 18:00:00,
2013-05-05 14:05:00,62.7,41.0,30.24,SE,131,4.0,15.0,45,0.00,,,0.00,Wunderground v.1.15,2013-05-05 18:05:00,
2013-05-05 14:10:00,62.8,41.1,30.24,ESE,114,4.0,4.0,45,0.00,,,0.00,Wunderground v.1.15,2013-05-05 18:10:00,
2013-05-05 14:20:00,63.5,41.2,30.24,NNW,339,2.0,15.0,44,0.00,,,0.00,Wunderground v.1.15,2013-05-05 18:20:00,
2013-05-05 14:30:00,63.9,45.4,30.24,East,85,3.0,15.0,51,0.00,,,0.00,Wunderground v.1.15,2013-05-05 18:30:00,
2013-05-05 14:40:00,62.3,44.4,30.24,SSW,198,4.0,15.0,52,0.00,,,0.00,Wunderground v.1.15,2013-05-05 18:40:00,
2013-05-05 14:50:00,61.5,45.2,30.23,ESE,117,4.0,15.0,55,0.00,,,0.00,Wunderground v.1.15,2013-05-05 18:50:00,
2013-05-05 15:00:00,61.6,44.3,30.23,South,172,3.0,15.0,53,0.00,,,0.00,Wunderground v.1.15,2013-05-05 19:00:00,
2013-05-05 15:10:00,61.5,44.2,30.23,SE,141,3.0,3.0,53,0.00,,,0.00,Wunderground v.1.15,2013-05-05 19:10:00,
2013-05-05 15:20:00,61.2,43.9,30.23,SSE,151,4.0,4.0,53,0.00,,,0.00,Wunderground v.1.15,2013-05-05 19:20:00,
2013-05-05 15:30:00,60.9,44.1,30.23,SE,133,4.0,4.0,54,0.00,,,0.00,Wunderground v.1.15,2013-05-05 19:30:00,
2013-05-05 15:40:00,59.5,44.2,30.23,ESE,117,4.0,15.0,57,0.00,,,0.00,Wunderground v.1.15,2013-05-05 19:40:00,
2013-05-05 15:50:00,59.0,44.2,30.23,East,100,5.0,15.0,58,0.00,,,0.00,Wunderground v.1.15,2013-05-05 19:50:00,
2013-05-05 16:00:00,59.0,44.7,30.23,SE,140,4.0,15.0,59,0.00,,,0.00,Wunderground v.1.15,2013-05-05 20:00:00,
2013-05-05 16:10:00,59.7,44.9,30.23,SE,146,2.0,15.0,58,0.00,,,0.00,Wunderground v.1.15,2013-05-05 20:10:00,
2013-05-05 16:20:00,59.7,45.8,30.23,ESE,110,3.0,15.0,60,0.00,,,0.00,Wunderground v.1.15,2013-05-05 20:20:00,
2013-05-05 16:25:00,59.3,44.5,30.22,ESE,117,3.0,15.0,58,0.00,,,0.00,Wunderground v.1.15,2013-05-05 20:25:00,
2013-05-05 16:30:00,59.0,44.2,30.22,East,86,3.0,15.0,58,0.00,,,0.00,Wunderground v.1.15,2013-05-05 20:30:00,
2013-05-05 16:40:00,59.3,44.5,30.22,SSE,148,3.0,3.0,58,0.00,,,0.00,Wunderground v.1.15,2013-05-05 20:40:00,
2013-05-05 16:50:00,59.0,44.7,30.22,SE,136,3.0,15.0,59,0.00,,,0.00,Wunderground v.1.15,2013-05-05 20:50:00,
2013-05-05 17:00:00,58.4,44.1,30.22,SE,129,3.0,15.0,59,0.00,,,0.00,Wunderground v.1.15,2013-05-05 21:00:00,
2013-05-05 17:05:00,57.8,44.4,30.22,SE,124,4.0,15.0,61,0.00,,,0.00,Wunderground v.1.15,2013-05-05 21:05:00,
2013-05-05 17:10:00,57.7,44.3,30.22,SE,129,4.0,4.0,61,0.00,,,0.00,Wunderground v.1.15,2013-05-05 21:10:00,
2013-05-05 17:20:00,57.6,44.2,30.22,SSW,207,3.0,3.0,61,0.00,,,0.00,Wunderground v.1.15,2013-05-05 21:20:00,
2013-05-05 17:25:00,57.2,43.9,30.23,SE,129,3.0,15.0,61,0.00,,,0.00,Wunderground v.1.15,2013-05-05 21:25:00,
2013-05-05 17:35:00,57.2,43.9,30.23,South,180,3.0,15.0,61,0.00,,,0.00,Wunderground v.1.15,2013-05-05 21:35:00,
2013-05-05 17:45:00,56.2,43.8,30.23,East,92,4.0,15.0,63,0.00,,,0.00,Wunderground v.1.15,2013-05-05 21:45:00,
2013-05-05 17:55:00,55.6,44.4,30.23,South,186,3.0,15.0,66,0.00,,,0.00,Wunderground v.1.15,2013-05-05 21:55:00,
2013-05-05 18:05:00,55.2,43.6,30.23,SW,218,3.0,15.0,65,0.00,,,0.00,Wunderground v.1.15,2013-05-05 22:05:00,
2013-05-05 18:10:00,54.9,43.7,30.24,SE,128,3.0,15.0,66,0.00,,,0.00,Wunderground v.1.15,2013-05-05 22:10:00,
2013-05-05 18:20:00,53.6,44.0,30.24,SE,141,3.0,15.0,70,0.00,,,0.00,Wunderground v.1.15,2013-05-05 22:20:00,
2013-05-05 18:25:00,53.1,43.9,30.24,ESE,110,4.0,15.0,71,0.00,,,0.00,Wunderground v.1.15,2013-05-05 22:25:00,
2013-05-05 18:35:00,53.1,43.2,30.24,SSE,165,2.0,15.0,69,0.00,,,0.00,Wunderground v.1.15,2013-05-05 22:35:00,
2013-05-05 18:45:00,52.3,42.4,30.24,SE,146,2.0,15.0,69,0.00,,,0.00,Wunderground v.1.15,2013-05-05 22:45:00,
2013-05-05 18:55:00,51.7,42.6,30.24,East,101,2.0,15.0,71,0.00,,,0.00,Wunderground v.1.15,2013-05-05 22:55:00,
2013-05-05 19:05:00,51.4,42.3,30.24,ESE,108,2.0,3.0,71,0.00,,,0.00,Wunderground v.1.15,2013-05-05 23:05:00,
2013-05-05 19:10:00,51.1,42.4,30.24,SE,136,2.0,15.0,72,0.00,,,0.00,Wunderground v.1.15,2013-05-05 23:10:00,
2013-05-05 19:20:00,50.5,42.2,30.24,East,89,2.0,15.0,73,0.00,,,0.00,Wunderground v.1.15,2013-05-05 23:20:00,
2013-05-05 19:25:00,50.5,42.2,30.24,SE,142,2.0,15.0,73,0.00,,,0.00,Wunderground v.1.15,2013-05-05 23:25:00,
2013-05-05 19:35:00,50.1,41.8,30.25,South,186,2.0,15.0,73,0.00,,,0.00,Wunderground v.1.15,2013-05-05 23:35:00,
2013-05-05 19:45:00,49.7,41.7,30.25,SE,134,2.0,15.0,74,0.00,,,0.00,Wunderground v.1.15,2013-05-05 23:45:00,
2013-05-05 19:55:00,49.4,41.8,30.25,SSE,159,1.0,15.0,75,0.00,,,0.00,Wunderground v.1.15,2013-05-05 23:55:00,
2013-05-05 20:05:00,48.9,41.7,30.25,SE,134,1.0,15.0,76,0.00,,,0.00,Wunderground v.1.15,2013-05-06 00:05:00,
2013-05-05 20:10:00,48.7,41.5,30.25,SE,138,1.0,1.0,76,0.00,,,0.00,Wunderground v.1.15,2013-05-06 00:10:00,
2013-05-05 20:20:00,48.1,41.2,30.25,SE,131,0.0,15.0,77,0.00,,,0.00,Wunderground v.1.15,2013-05-06 00:20:00,
2013-05-05 20:30:00,47.6,41.1,30.25,SE,132,0.0,15.0,78,0.00,,,0.00,Wunderground v.1.15,2013-05-06 00:30:00,
2013-05-05 20:35:00,47.3,41.1,30.26,SE,132,0.0,15.0,79,0.00,,,0.00,Wunderground v.1.15,2013-05-06 00:35:00,
2013-05-05 20:45:00,46.7,41.2,30.26,South,177,0.0,15.0,81,0.00,,,0.00,Wunderground v.1.15,2013-05-06 00:45:00,
2013-05-05 20:55:00,46.2,41.3,30.26,South,176,0.0,15.0,83,0.00,,,0.00,Wunderground v.1.15,2013-05-06 00:55:00,
2013-05-05 21:05:00,45.7,41.4,30.26,South,176,0.0,15.0,85,0.00,,,0.00,Wunderground v.1.15,2013-05-06 01:05:00,
2013-05-05 21:10:00,45.4,41.2,30.27,South,176,0.0,15.0,85,0.00,,,0.00,Wunderground v.1.15,2013-05-06 01:10:00,
2013-05-05 21:20:00,45.2,41.6,30.27,SSE,163,0.0,15.0,87,0.00,,,0.00,Wunderground v.1.15,2013-05-06 01:20:00,
2013-05-05 21:25:00,45.3,42.0,30.27,SE,134,0.0,15.0,88,0.00,,,0.00,Wunderground v.1.15,2013-05-06 01:25:00,
2013-05-05 21:35:00,45.3,42.0,30.28,SSE,166,0.0,15.0,88,0.00,,,0.00,Wunderground v.1.15,2013-05-06 01:35:00,
2013-05-05 21:40:00,45.3,42.2,30.28,SSE,150,0.0,15.0,89,0.00,,,0.00,Wunderground v.1.15,2013-05-06 01:40:00,
2013-05-05 21:45:00,45.4,42.3,30.28,East,100,1.0,15.0,89,0.00,,,0.00,Wunderground v.1.15,2013-05-06 01:45:00,
2013-05-05 21:55:00,45.7,42.6,30.28,South,189,1.0,15.0,89,0.00,,,0.00,Wunderground v.1.15,2013-05-06 01:55:00,
2013-05-05 22:05:00,45.8,42.7,30.28,SSW,211,0.0,15.0,89,0.00,,,0.00,Wunderground v.1.15,2013-05-06 02:05:00,
2013-05-05 22:10:00,45.9,42.8,30.27,SSE,166,0.0,15.0,89,0.00,,,0.00,Wunderground v.1.15,2013-05-06 02:10:00,
2013-05-05 22:20:00,46.0,42.9,30.27,SSE,167,0.0,15.0,89,0.00,,,0.00,Wunderground v.1.15,2013-05-06 02:20:00,
2013-05-05 22:30:00,46.2,42.8,30.27,ENE,75,0.0,15.0,88,0.00,,,0.00,Wunderground v.1.15,2013-05-06 02:30:00,
2013-05-05 22:40:00,46.3,43.2,30.27,East,90,1.0,15.0,89,0.00,,,0.00,Wunderground v.1.15,2013-05-06 02:40:00,
2013-05-05 22:50:00,46.4,43.0,30.27,SE,132,0.0,15.0,88,0.00,,,0.00,Wunderground v.1.15,2013-05-06 02:50:00,
2013-05-05 23:00:00,46.5,43.1,30.27,WSW,246,0.0,15.0,88,0.00,,,0.00,Wunderground v.1.15,2013-05-06 03:00:00,
2013-05-05 23:05:00,46.5,43.1,30.26,WSW,243,0.0,15.0,88,0.00,,,0.00,Wunderground v.1.15,2013-05-06 03:05:00,
2013-05-05 23:15:00,46.6,43.2,30.26,WSW,243,0.0,15.0,88,0.00,,,0.00,Wunderground v.1.15,2013-05-06 03:15:00,
2013-05-05 23:25:00,46.7,43.3,30.26,SE,136,0.0,15.0,88,0.00,,,0.00,Wunderground v.1.15,2013-05-06 03:25:00,
2013-05-05 23:35:00,46.9,43.5,30.26,SE,137,0.0,15.0,88,0.00,,,0.00,Wunderground v.1.15,2013-05-06 03:35:00,
2013-05-05 23:45:00,46.9,43.5,30.26,ESE,113,0.0,15.0,88,0.00,,,0.00,Wunderground v.1.15,2013-05-06 03:45:00,
2013-05-05 23:55:00,46.9,43.5,30.26,South,191,0.0,15.0,88,0.00,,,0.00,Wunderground v.1.15,2013-05-06 03:55:00,